createdAt,value
2019-01-20T00:00:58.599Z,0.00
2019-01-20T00:01:58.612Z,0.00
2019-01-20T00:02:58.578Z,0.00
2019-01-20T00:03:58.566Z,0.00
2019-01-20T00:04:58.554Z,0.00
2019-01-20T00:05:58.589Z,0.00
2019-01-20T00:06:58.541Z,0.00
2019-01-20T00:07:58.521Z,0.00
2019-01-20T00:08:58.512Z,0.00
2019-01-20T00:09:58.504Z,0.00
2019-01-20T00:10:58.574Z,0.00
2019-01-20T00:11:58.482Z,0.00
2019-01-20T00:12:58.475Z,0.00
2019-01-20T00:13:58.460Z,0.00
2019-01-20T00:14:58.488Z,0.00
2019-01-20T00:15:58.439Z,0.00
2019-01-20T00:16:58.424Z,0.00
2019-01-20T00:17:58.413Z,0.00
2019-01-20T00:18:58.403Z,0.00
2019-01-20T00:19:58.416Z,0.00
2019-01-20T00:20:58.397Z,0.00
2019-01-20T00:21:58.386Z,0.00
2019-01-20T00:22:58.361Z,0.00
2019-01-20T00:23:58.346Z,0.00
2019-01-20T00:24:58.385Z,0.00
2019-01-20T00:25:58.327Z,0.00
2019-01-20T00:26:58.319Z,0.00
2019-01-20T00:27:58.315Z,0.00
2019-01-20T00:28:58.300Z,0.00
2019-01-20T00:29:58.316Z,0.00
2019-01-20T00:30:58.270Z,0.00
2019-01-20T00:31:58.262Z,0.00
2019-01-20T00:32:58.251Z,0.00
2019-01-20T00:33:58.237Z,0.00
2019-01-20T00:34:58.261Z,0.00
2019-01-20T00:35:58.221Z,0.00
2019-01-20T00:36:58.242Z,0.00
2019-01-20T00:37:58.197Z,0.00
2019-01-20T00:38:58.189Z,0.00
2019-01-20T00:39:58.179Z,0.00
2019-01-20T00:40:58.163Z,0.00
2019-01-20T00:41:58.188Z,0.00
2019-01-20T00:42:58.148Z,0.00
2019-01-20T00:43:58.135Z,0.00
2019-01-20T00:45:02.575Z,0.00
2019-01-20T00:45:59.106Z,0.00
2019-01-20T00:46:58.127Z,0.00
2019-01-20T00:47:58.085Z,0.00
2019-01-20T00:48:58.074Z,0.00
2019-01-20T00:49:58.072Z,0.00
2019-01-20T00:50:58.057Z,0.00
2019-01-20T00:51:58.073Z,0.00
2019-01-20T00:52:58.031Z,0.00
2019-01-20T00:53:58.019Z,0.00
2019-01-20T00:54:58.009Z,0.00
2019-01-20T00:55:57.999Z,0.00
2019-01-20T00:56:58.019Z,0.00
2019-01-20T00:57:57.979Z,0.00
2019-01-20T00:58:58.002Z,0.00
2019-01-20T00:59:57.964Z,0.00
2019-01-20T01:00:57.944Z,0.00
2019-01-20T01:01:57.951Z,0.00
2019-01-20T01:02:57.954Z,0.00
2019-01-20T01:03:57.920Z,0.00
2019-01-20T01:04:57.947Z,0.00
2019-01-20T01:05:57.895Z,0.00
2019-01-20T01:06:57.883Z,0.00
2019-01-20T01:07:57.933Z,0.00
2019-01-20T01:08:57.856Z,0.00
2019-01-20T01:09:57.849Z,0.00
2019-01-20T01:10:57.833Z,0.00
2019-01-20T01:11:57.830Z,0.00
2019-01-20T01:12:57.843Z,0.00
2019-01-20T01:13:57.805Z,0.00
2019-01-20T01:14:57.815Z,0.00
2019-01-20T01:15:57.778Z,0.00
2019-01-20T01:16:57.774Z,0.00
2019-01-20T01:17:57.808Z,0.00
2019-01-20T01:18:57.757Z,0.00
2019-01-20T01:19:57.738Z,0.00
2019-01-20T01:20:57.734Z,0.00
2019-01-20T01:21:57.714Z,0.00
2019-01-20T01:22:57.731Z,0.00
2019-01-20T01:23:57.698Z,0.00
2019-01-20T01:24:57.683Z,0.00
2019-01-20T01:25:57.670Z,0.00
2019-01-20T01:26:57.663Z,0.00
2019-01-20T01:27:57.677Z,0.00
2019-01-20T01:28:57.646Z,0.00
2019-01-20T01:29:57.687Z,0.00
2019-01-20T01:30:57.621Z,0.00
2019-01-20T01:31:57.610Z,0.00
2019-01-20T01:32:57.596Z,0.00
2019-01-20T01:33:57.585Z,0.00
2019-01-20T01:34:57.609Z,0.00
2019-01-20T01:35:57.563Z,0.00
2019-01-20T01:36:57.555Z,0.00
2019-01-20T01:37:57.542Z,0.00
2019-01-20T01:38:57.541Z,0.00
2019-01-20T01:39:57.543Z,0.00
2019-01-20T01:40:57.550Z,0.00
2019-01-20T01:41:57.500Z,0.00
2019-01-20T01:42:57.484Z,0.00
2019-01-20T01:43:57.473Z,0.00
2019-01-20T01:44:57.465Z,0.00
2019-01-20T01:45:57.477Z,0.00
2019-01-20T01:46:57.453Z,0.00
2019-01-20T01:47:57.431Z,0.00
2019-01-20T01:48:57.455Z,0.00
2019-01-20T01:49:57.409Z,0.00
2019-01-20T01:50:57.398Z,0.00
2019-01-20T01:51:57.387Z,0.00
2019-01-20T01:52:57.384Z,0.00
2019-01-20T01:53:57.390Z,0.00
2019-01-20T01:54:57.353Z,0.00
2019-01-20T01:55:57.367Z,0.00
2019-01-20T01:56:57.332Z,0.00
2019-01-20T01:57:57.322Z,0.00
2019-01-20T01:58:57.327Z,0.00
2019-01-20T01:59:57.324Z,0.00
2019-01-20T02:00:57.294Z,0.00
2019-01-20T02:01:57.281Z,0.00
2019-01-20T02:02:57.266Z,0.00
2019-01-20T02:03:57.284Z,0.00
2019-01-20T02:04:57.274Z,0.00
2019-01-20T02:05:57.257Z,0.00
2019-01-20T02:06:57.248Z,0.00
2019-01-20T02:07:57.212Z,0.00
2019-01-20T02:08:57.202Z,0.00
2019-01-20T02:09:57.192Z,0.00
2019-01-20T02:10:57.180Z,0.00
2019-01-20T02:11:57.199Z,0.00
2019-01-20T02:12:57.158Z,0.00
2019-01-20T02:13:57.148Z,0.00
2019-01-20T02:14:57.138Z,0.00
2019-01-20T02:15:57.152Z,0.00
2019-01-20T02:16:57.116Z,0.00
2019-01-20T02:17:57.121Z,0.00
2019-01-20T02:18:57.094Z,0.00
2019-01-20T02:19:57.113Z,0.00
2019-01-20T02:20:57.071Z,0.00
2019-01-20T02:21:57.103Z,0.00
2019-01-20T02:22:57.050Z,0.00
2019-01-20T02:23:57.044Z,0.00
2019-01-20T02:24:57.034Z,0.00
2019-01-20T02:25:57.017Z,0.00
2019-01-20T02:26:57.041Z,0.00
2019-01-20T02:27:58.645Z,0.00
2019-01-20T02:28:56.984Z,0.00
2019-01-20T02:29:56.988Z,0.00
2019-01-20T02:30:56.972Z,0.00
2019-01-20T02:31:57.004Z,0.00
2019-01-20T02:32:56.944Z,0.00
2019-01-20T02:33:56.929Z,0.00
2019-01-20T02:34:56.921Z,0.00
2019-01-20T02:35:56.918Z,0.00
2019-01-20T02:36:56.927Z,0.00
2019-01-20T02:37:56.906Z,0.00
2019-01-20T02:38:56.879Z,0.00
2019-01-20T02:39:56.868Z,0.00
2019-01-20T02:40:56.855Z,0.00
2019-01-20T02:41:56.886Z,0.00
2019-01-20T02:42:56.880Z,0.00
2019-01-20T02:43:56.825Z,0.00
2019-01-20T02:44:56.814Z,0.00
2019-01-20T02:45:56.800Z,0.00
2019-01-20T02:46:56.792Z,0.00
2019-01-20T02:47:56.830Z,0.00
2019-01-20T02:48:56.770Z,0.00
2019-01-20T02:49:56.758Z,0.00
2019-01-20T02:50:56.748Z,0.00
2019-01-20T02:51:56.733Z,0.00
2019-01-20T02:52:56.763Z,0.00
2019-01-20T02:53:56.719Z,0.00
2019-01-20T02:54:56.705Z,0.00
2019-01-20T02:55:56.690Z,0.00
2019-01-20T02:56:56.687Z,0.00
2019-01-20T02:57:56.706Z,0.00
2019-01-20T02:58:56.658Z,0.00
2019-01-20T02:59:56.647Z,0.00
2019-01-20T03:00:56.638Z,0.00
2019-01-20T03:01:56.629Z,0.00
2019-01-20T03:02:56.661Z,0.00
2019-01-20T03:03:56.611Z,0.00
2019-01-20T03:04:56.595Z,0.00
2019-01-20T03:05:56.581Z,0.00
2019-01-20T03:06:56.571Z,0.00
2019-01-20T03:07:56.590Z,0.00
2019-01-20T03:08:56.553Z,0.00
2019-01-20T03:09:56.552Z,0.00
2019-01-20T03:10:56.531Z,0.00
2019-01-20T03:12:03.502Z,0.00
2019-01-20T03:12:57.505Z,0.00
2019-01-20T03:13:56.498Z,0.00
2019-01-20T03:14:56.488Z,0.00
2019-01-20T03:15:56.484Z,0.00
2019-01-20T03:16:56.491Z,0.00
2019-01-20T03:17:56.458Z,0.00
2019-01-20T03:18:56.469Z,0.00
2019-01-20T03:19:56.430Z,0.00
2019-01-20T03:20:56.453Z,0.00
2019-01-20T03:21:56.413Z,0.00
2019-01-20T03:22:56.430Z,0.00
2019-01-20T03:23:56.386Z,0.00
2019-01-20T03:24:56.377Z,0.00
2019-01-20T03:25:56.370Z,0.00
2019-01-20T03:26:56.380Z,0.00
2019-01-20T03:27:56.379Z,0.00
2019-01-20T03:28:56.347Z,0.00
2019-01-20T03:29:56.321Z,0.00
2019-01-20T03:30:56.313Z,0.00
2019-01-20T03:31:56.308Z,0.00
2019-01-20T03:32:56.313Z,0.00
2019-01-20T03:33:56.278Z,0.00
2019-01-20T03:34:56.271Z,0.00
2019-01-20T03:35:56.292Z,0.00
2019-01-20T03:36:56.255Z,0.00
2019-01-20T03:37:56.238Z,0.00
2019-01-20T03:38:56.244Z,0.00
2019-01-20T03:39:56.213Z,0.00
2019-01-20T03:40:56.229Z,0.00
2019-01-20T03:41:56.207Z,0.00
2019-01-20T03:42:56.180Z,0.00
2019-01-20T03:43:56.171Z,0.00
2019-01-20T03:44:56.159Z,0.00
2019-01-20T03:45:56.181Z,0.00
2019-01-20T03:46:56.146Z,0.00
2019-01-20T03:47:56.141Z,0.00
2019-01-20T03:48:56.114Z,0.00
2019-01-20T03:49:56.107Z,0.00
2019-01-20T03:50:56.121Z,0.00
2019-01-20T03:51:56.082Z,0.00
2019-01-20T03:52:56.074Z,0.00
2019-01-20T03:53:56.074Z,0.00
2019-01-20T03:54:56.061Z,0.00
2019-01-20T03:55:56.065Z,0.00
2019-01-20T03:56:56.030Z,0.00
2019-01-20T03:57:56.018Z,0.00
2019-01-20T03:58:56.034Z,0.00
2019-01-20T03:59:55.997Z,0.00
2019-01-20T04:00:55.993Z,0.00
2019-01-20T04:01:55.999Z,0.00
2019-01-20T04:02:55.969Z,0.00
2019-01-20T04:03:55.952Z,0.00
2019-01-20T04:04:55.941Z,0.00
2019-01-20T04:05:55.931Z,0.00
2019-01-20T04:06:55.955Z,0.00
2019-01-20T04:07:55.907Z,0.00
2019-01-20T04:08:55.899Z,0.00
2019-01-20T04:09:55.890Z,0.00
2019-01-20T04:10:55.877Z,0.00
2019-01-20T04:11:55.892Z,0.00
2019-01-20T04:12:55.868Z,0.00
2019-01-20T04:13:55.848Z,0.00
2019-01-20T04:14:55.832Z,0.00
2019-01-20T04:15:55.821Z,0.00
2019-01-20T04:16:55.841Z,0.00
2019-01-20T04:17:55.804Z,0.00
2019-01-20T04:18:55.796Z,0.00
2019-01-20T04:19:55.791Z,0.00
2019-01-20T04:20:55.779Z,0.00
2019-01-20T04:21:55.794Z,0.00
2019-01-20T04:22:55.752Z,0.00
2019-01-20T04:23:55.735Z,0.00
2019-01-20T04:24:55.728Z,0.00
2019-01-20T04:25:55.716Z,0.00
2019-01-20T04:26:55.761Z,0.00
2019-01-20T04:27:55.693Z,0.00
2019-01-20T04:28:55.682Z,0.00
2019-01-20T04:29:55.670Z,0.00
2019-01-20T04:30:55.661Z,0.00
2019-01-20T04:31:55.679Z,0.00
2019-01-20T04:32:55.650Z,0.00
2019-01-20T04:33:55.640Z,0.00
2019-01-20T04:34:55.640Z,0.00
2019-01-20T04:35:55.603Z,0.00
2019-01-20T04:36:55.620Z,0.00
2019-01-20T04:37:55.583Z,0.00
2019-01-20T04:38:55.576Z,0.00
2019-01-20T04:39:55.575Z,0.00
2019-01-20T04:40:55.552Z,0.00
2019-01-20T04:41:55.567Z,0.00
2019-01-20T04:42:55.530Z,0.00
2019-01-20T04:43:55.519Z,0.00
2019-01-20T04:44:55.510Z,0.00
2019-01-20T04:45:55.508Z,0.00
2019-01-20T04:46:55.512Z,0.00
2019-01-20T04:47:55.502Z,0.00
2019-01-20T04:48:55.466Z,0.00
2019-01-20T04:49:55.452Z,0.00
2019-01-20T04:50:55.444Z,0.00
2019-01-20T04:51:55.448Z,0.00
2019-01-20T04:52:55.477Z,0.00
2019-01-20T04:53:55.411Z,0.00
2019-01-20T04:54:55.399Z,0.00
2019-01-20T04:55:55.389Z,0.00
2019-01-20T04:56:55.377Z,0.00
2019-01-20T04:57:55.416Z,0.00
2019-01-20T04:58:55.356Z,0.00
2019-01-20T04:59:55.346Z,0.00
2019-01-20T05:00:55.336Z,0.00
2019-01-20T05:01:55.327Z,0.00
2019-01-20T05:02:55.342Z,0.00
2019-01-20T05:03:55.311Z,0.00
2019-01-20T05:04:55.293Z,0.00
2019-01-20T05:05:55.283Z,0.00
2019-01-20T05:06:55.269Z,0.00
2019-01-20T05:07:55.296Z,0.00
2019-01-20T05:08:55.247Z,0.00
2019-01-20T05:09:55.262Z,0.00
2019-01-20T05:10:55.229Z,0.00
2019-01-20T05:11:55.218Z,0.00
2019-01-20T05:12:55.237Z,0.00
2019-01-20T05:13:55.195Z,0.00
2019-01-20T05:14:55.215Z,0.00
2019-01-20T05:15:55.175Z,0.00
2019-01-20T05:16:55.190Z,0.00
2019-01-20T05:17:55.156Z,0.00
2019-01-20T05:18:55.143Z,0.00
2019-01-20T05:19:55.153Z,0.00
2019-01-20T05:20:55.118Z,0.00
2019-01-20T05:21:55.110Z,0.00
2019-01-20T05:22:55.099Z,0.00
2019-01-20T05:23:55.087Z,0.00
2019-01-20T05:24:55.109Z,0.00
2019-01-20T05:25:55.063Z,0.00
2019-01-20T05:26:55.053Z,0.00
2019-01-20T05:27:55.048Z,0.00
2019-01-20T05:28:55.035Z,0.00
2019-01-20T05:29:55.062Z,0.00
2019-01-20T05:30:55.023Z,0.00
2019-01-20T05:31:55.003Z,0.00
2019-01-20T05:32:54.990Z,0.00
2019-01-20T05:33:54.978Z,0.00
2019-01-20T05:34:54.999Z,0.00
2019-01-20T05:35:54.975Z,0.00
2019-01-20T05:36:54.954Z,0.00
2019-01-20T05:37:54.936Z,0.00
2019-01-20T05:38:54.950Z,0.00
2019-01-20T05:39:54.913Z,0.00
2019-01-20T05:40:54.903Z,0.00
2019-01-20T05:41:54.921Z,0.00
2019-01-20T05:42:54.902Z,0.00
2019-01-20T05:43:54.872Z,0.00
2019-01-20T05:44:54.862Z,0.00
2019-01-20T05:45:54.935Z,0.00
2019-01-20T05:46:54.836Z,0.00
2019-01-20T05:47:54.830Z,0.00
2019-01-20T05:48:54.821Z,0.00
2019-01-20T05:49:54.807Z,0.00
2019-01-20T05:50:54.818Z,0.00
2019-01-20T05:51:54.782Z,0.00
2019-01-20T05:52:54.774Z,0.00
2019-01-20T05:53:54.767Z,0.00
2019-01-20T05:54:54.769Z,0.00
2019-01-20T05:55:54.764Z,0.00
2019-01-20T05:56:54.729Z,0.00
2019-01-20T05:57:54.719Z,0.00
2019-01-20T05:58:54.710Z,0.00
2019-01-20T05:59:54.695Z,0.00
2019-01-20T06:00:54.728Z,0.00
2019-01-20T06:01:54.676Z,0.00
2019-01-20T06:02:54.664Z,0.00
2019-01-20T06:03:54.652Z,0.00
2019-01-20T06:04:54.642Z,0.00
2019-01-20T06:05:54.659Z,0.00
2019-01-20T06:06:54.662Z,0.00
2019-01-20T06:07:54.609Z,0.00
2019-01-20T06:08:54.599Z,0.00
2019-01-20T06:09:54.591Z,0.00
2019-01-20T06:10:54.579Z,0.00
2019-01-20T06:11:54.595Z,0.00
2019-01-20T06:12:54.666Z,0.00
2019-01-20T06:13:54.549Z,0.00
2019-01-20T06:14:54.537Z,0.00
2019-01-20T06:15:54.551Z,0.00
2019-01-20T06:16:54.543Z,0.00
2019-01-20T06:17:54.505Z,0.00
2019-01-20T06:18:54.502Z,0.00
2019-01-20T06:19:54.482Z,0.00
2019-01-20T06:20:54.472Z,0.00
2019-01-20T06:21:54.483Z,0.00
2019-01-20T06:22:54.446Z,0.00
2019-01-20T06:23:54.438Z,0.00
2019-01-20T06:24:54.433Z,0.00
2019-01-20T06:25:54.415Z,0.00
2019-01-20T06:26:54.431Z,0.00
2019-01-20T06:27:54.397Z,0.00
2019-01-20T06:28:54.385Z,0.00
2019-01-20T06:29:54.372Z,0.00
2019-01-20T06:30:54.395Z,0.00
2019-01-20T06:31:54.351Z,0.00
2019-01-20T06:32:54.339Z,0.00
2019-01-20T06:33:54.372Z,0.00
2019-01-20T06:34:54.320Z,0.00
2019-01-20T06:35:54.307Z,0.00
2019-01-20T06:36:54.300Z,0.00
2019-01-20T06:37:54.293Z,0.00
2019-01-20T06:38:54.312Z,0.00
2019-01-20T06:39:54.266Z,0.00
2019-01-20T06:40:54.252Z,0.00
2019-01-20T06:41:54.246Z,0.00
2019-01-20T06:43:01.293Z,0.00
2019-01-20T06:43:55.256Z,4.00
2019-01-20T06:44:54.225Z,4.00
2019-01-20T06:45:54.199Z,4.00
2019-01-20T06:46:54.187Z,0.00
2019-01-20T06:47:54.201Z,4.00
2019-01-20T06:48:54.171Z,4.00
2019-01-20T06:49:54.156Z,4.00
2019-01-20T06:50:54.144Z,4.00
2019-01-20T06:51:54.166Z,8.00
2019-01-20T06:52:54.128Z,4.00
2019-01-20T06:53:54.122Z,8.00
2019-01-20T06:54:54.102Z,8.00
2019-01-20T06:55:54.106Z,16.00
2019-01-20T06:56:54.104Z,16.00
2019-01-20T06:57:54.068Z,16.00
2019-01-20T06:58:54.064Z,20.00
2019-01-20T06:59:54.046Z,24.00
2019-01-20T07:00:54.037Z,28.00
2019-01-20T07:01:54.053Z,32.00
2019-01-20T07:02:54.018Z,40.00
2019-01-20T07:03:54.017Z,40.00
2019-01-20T07:04:53.993Z,48.00
2019-01-20T07:05:54.012Z,56.00
2019-01-20T07:06:53.971Z,64.00
2019-01-20T07:07:53.986Z,72.00
2019-01-20T07:08:53.965Z,84.00
2019-01-20T07:09:53.953Z,96.00
2019-01-20T07:10:53.936Z,108.00
2019-01-20T07:11:53.931Z,124.00
2019-01-20T07:12:53.937Z,136.00
2019-01-20T07:13:53.922Z,152.00
2019-01-20T07:14:53.887Z,172.00
2019-01-20T07:15:53.881Z,188.00
2019-01-20T07:16:53.866Z,212.00
2019-01-20T07:17:53.854Z,232.00
2019-01-20T07:18:53.873Z,252.00
2019-01-20T07:19:53.838Z,276.00
2019-01-20T07:20:53.836Z,304.00
2019-01-20T07:21:53.926Z,332.00
2019-01-20T07:22:53.819Z,356.00
2019-01-20T07:23:53.789Z,388.00
2019-01-20T07:24:53.778Z,412.00
2019-01-20T07:25:53.774Z,444.00
2019-01-20T07:26:53.782Z,480.00
2019-01-20T07:27:53.748Z,512.00
2019-01-20T07:28:53.749Z,544.00
2019-01-20T07:29:53.728Z,584.00
2019-01-20T07:30:53.721Z,616.00
2019-01-20T07:31:53.739Z,652.00
2019-01-20T07:32:53.693Z,692.00
2019-01-20T07:33:53.707Z,740.00
2019-01-20T07:34:53.667Z,784.00
2019-01-20T07:35:53.661Z,832.00
2019-01-20T07:36:53.645Z,880.00
2019-01-20T07:37:53.662Z,920.00
2019-01-20T07:38:53.625Z,968.00
2019-01-20T07:39:53.643Z,1012.00
2019-01-20T07:40:53.631Z,1056.00
2019-01-20T07:41:53.593Z,1100.00
2019-01-20T07:42:53.582Z,1144.00
2019-01-20T07:43:53.576Z,1184.00
2019-01-20T07:44:53.561Z,1216.00
2019-01-20T07:45:53.593Z,1248.00
2019-01-20T07:46:53.542Z,1300.00
2019-01-20T07:47:53.526Z,1360.00
2019-01-20T07:48:53.541Z,1420.00
2019-01-20T07:49:53.504Z,1480.00
2019-01-20T07:50:53.496Z,1524.00
2019-01-20T07:51:53.528Z,1568.00
2019-01-20T07:52:53.473Z,1600.00
2019-01-20T07:53:53.467Z,1624.00
2019-01-20T07:54:53.453Z,1680.00
2019-01-20T07:55:53.442Z,1752.00
2019-01-20T07:56:53.454Z,1816.00
2019-01-20T07:57:53.434Z,1872.00
2019-01-20T07:58:53.410Z,1920.00
2019-01-20T07:59:53.435Z,1968.00
2019-01-20T08:00:53.390Z,2020.00
2019-01-20T08:01:53.380Z,2060.00
2019-01-20T08:02:53.364Z,2084.00
2019-01-20T08:03:53.369Z,2120.00
2019-01-20T08:04:53.373Z,2160.00
2019-01-20T08:05:53.333Z,2196.00
2019-01-20T08:06:53.322Z,2252.00
2019-01-20T08:07:53.336Z,2312.00
2019-01-20T08:08:53.301Z,2344.00
2019-01-20T08:09:53.322Z,2396.00
2019-01-20T08:10:53.294Z,2440.00
2019-01-20T08:11:53.268Z,2496.00
2019-01-20T08:12:53.284Z,2528.00
2019-01-20T08:13:53.249Z,2564.00
2019-01-20T08:14:53.238Z,2700.00
2019-01-20T08:15:53.225Z,2860.00
2019-01-20T08:16:53.226Z,2728.00
2019-01-20T08:17:53.239Z,2708.00
2019-01-20T08:18:53.193Z,2736.00
2019-01-20T08:19:53.181Z,2780.00
2019-01-20T08:20:53.177Z,2748.00
2019-01-20T08:21:53.160Z,2776.00
2019-01-20T08:22:53.179Z,2828.00
2019-01-20T08:23:53.141Z,2868.00
2019-01-20T08:24:53.127Z,2904.00
2019-01-20T08:25:53.117Z,2936.00
2019-01-20T08:26:53.107Z,2972.00
2019-01-20T08:27:53.121Z,3012.00
2019-01-20T08:28:53.095Z,3032.00
2019-01-20T08:29:53.075Z,3076.00
2019-01-20T08:30:53.079Z,3088.00
2019-01-20T08:31:53.053Z,3128.00
2019-01-20T08:32:53.068Z,3168.00
2019-01-20T08:33:53.034Z,3172.00
2019-01-20T08:34:53.019Z,3200.00
2019-01-20T08:35:53.049Z,3248.00
2019-01-20T08:36:53.000Z,3260.00
2019-01-20T08:37:52.986Z,3276.00
2019-01-20T08:38:52.976Z,3328.00
2019-01-20T08:39:52.967Z,3336.00
2019-01-20T08:40:52.982Z,3364.00
2019-01-20T08:41:52.951Z,3400.00
2019-01-20T08:42:52.935Z,3404.00
2019-01-20T08:43:52.950Z,3400.00
2019-01-20T08:44:52.910Z,3428.00
2019-01-20T08:45:52.899Z,3476.00
2019-01-20T08:46:52.889Z,3496.00
2019-01-20T08:47:52.879Z,3524.00
2019-01-20T08:48:52.894Z,3556.00
2019-01-20T08:49:52.857Z,3572.00
2019-01-20T08:50:52.846Z,3600.00
2019-01-20T08:51:52.835Z,3668.00
2019-01-20T08:52:52.858Z,3724.00
2019-01-20T08:53:52.812Z,3776.00
2019-01-20T08:54:52.816Z,3784.00
2019-01-20T08:55:52.805Z,3784.00
2019-01-20T08:56:52.781Z,3832.00
2019-01-20T08:57:52.795Z,3892.00
2019-01-20T08:58:52.759Z,3940.00
2019-01-20T08:59:52.750Z,4016.00
2019-01-20T09:00:52.737Z,4084.00
2019-01-20T09:01:52.740Z,4140.00
2019-01-20T09:02:52.761Z,4232.00
2019-01-20T09:03:52.702Z,4252.00
2019-01-20T09:04:52.694Z,4260.00
2019-01-20T09:05:52.683Z,4284.00
2019-01-20T09:06:52.676Z,4344.00
2019-01-20T09:07:52.687Z,4376.00
2019-01-20T09:08:52.657Z,4364.00
2019-01-20T09:09:52.665Z,4416.00
2019-01-20T09:10:52.640Z,4444.00
2019-01-20T09:11:52.645Z,4488.00
2019-01-20T09:12:52.632Z,4548.00
2019-01-20T09:13:52.598Z,4584.00
2019-01-20T09:14:52.591Z,4648.00
2019-01-20T09:15:52.590Z,4676.00
2019-01-20T09:16:52.587Z,4680.00
2019-01-20T09:17:52.552Z,4728.00
2019-01-20T09:18:52.563Z,4784.00
2019-01-20T09:19:52.572Z,4820.00
2019-01-20T09:20:52.518Z,4840.00
2019-01-20T09:21:52.508Z,4876.00
2019-01-20T09:22:52.501Z,4924.00
2019-01-20T09:23:52.491Z,4964.00
2019-01-20T09:24:52.515Z,5024.00
2019-01-20T09:25:52.467Z,5008.00
2019-01-20T09:26:52.456Z,5088.00
2019-01-20T09:27:52.443Z,5064.00
2019-01-20T09:28:52.433Z,5132.00
2019-01-20T09:29:52.453Z,5176.00
2019-01-20T09:30:52.416Z,5184.00
2019-01-20T09:31:52.411Z,5208.00
2019-01-20T09:32:52.387Z,5272.00
2019-01-20T09:33:52.378Z,5288.00
2019-01-20T09:34:52.391Z,5300.00
2019-01-20T09:35:52.357Z,5328.00
2019-01-20T09:36:52.343Z,5384.00
2019-01-20T09:37:52.374Z,5420.00
2019-01-20T09:38:52.329Z,5480.00
2019-01-20T09:39:52.315Z,5496.00
2019-01-20T09:40:52.337Z,5556.00
2019-01-20T09:41:52.290Z,5576.00
2019-01-20T09:42:52.281Z,5540.00
2019-01-20T09:43:52.269Z,5576.00
2019-01-20T09:44:52.259Z,5604.00
2019-01-20T09:45:52.273Z,5640.00
2019-01-20T09:46:52.234Z,5660.00
2019-01-20T09:47:52.225Z,5696.00
2019-01-20T09:48:52.213Z,5696.00
2019-01-20T09:49:52.204Z,5712.00
2019-01-20T09:50:52.217Z,5748.00
2019-01-20T09:51:52.214Z,5776.00
2019-01-20T09:52:53.790Z,5796.00
2019-01-20T09:53:52.165Z,5812.00
2019-01-20T09:54:52.148Z,5832.00
2019-01-20T09:55:52.171Z,5848.00
2019-01-20T09:56:52.133Z,5896.00
2019-01-20T09:57:52.146Z,5900.00
2019-01-20T09:58:52.117Z,5908.00
2019-01-20T09:59:52.098Z,5916.00
2019-01-20T10:00:52.082Z,5920.00
2019-01-20T10:01:52.106Z,5928.00
2019-01-20T10:02:52.073Z,5960.00
2019-01-20T10:03:52.055Z,5976.00
2019-01-20T10:04:52.038Z,5988.00
2019-01-20T10:05:52.030Z,5984.00
2019-01-20T10:06:52.047Z,6016.00
2019-01-20T10:07:52.034Z,5992.00
2019-01-20T10:08:52.005Z,5964.00
2019-01-20T10:09:51.999Z,5924.00
2019-01-20T10:10:51.972Z,5904.00
2019-01-20T10:11:51.985Z,5908.00
2019-01-20T10:12:51.954Z,5924.00
2019-01-20T10:13:54.894Z,5912.00
2019-01-20T10:14:51.934Z,5920.00
2019-01-20T10:15:52.367Z,5904.00
2019-01-20T10:16:53.037Z,5912.00
2019-01-20T10:17:51.930Z,5916.00
2019-01-20T10:18:51.883Z,5896.00
2019-01-20T10:19:51.879Z,5868.00
2019-01-20T10:20:51.866Z,5884.00
2019-01-20T10:21:51.875Z,5900.00
2019-01-20T10:22:51.855Z,5884.00
2019-01-20T10:23:51.831Z,5900.00
2019-01-20T10:24:51.819Z,5916.00
2019-01-20T10:25:51.807Z,5912.00
2019-01-20T10:26:51.826Z,5884.00
2019-01-20T10:27:51.789Z,5884.00
2019-01-20T10:28:51.809Z,5900.00
2019-01-20T10:29:51.774Z,5892.00
2019-01-20T10:30:51.757Z,5872.00
2019-01-20T10:31:51.744Z,5876.00
2019-01-20T10:32:51.731Z,5880.00
2019-01-20T10:33:51.750Z,5872.00
2019-01-20T10:34:51.755Z,5852.00
2019-01-20T10:35:51.705Z,5852.00
2019-01-20T10:36:51.686Z,5836.00
2019-01-20T10:37:51.677Z,5844.00
2019-01-20T10:38:51.664Z,5820.00
2019-01-20T10:39:51.685Z,5792.00
2019-01-20T10:40:51.673Z,5784.00
2019-01-20T10:41:51.637Z,5752.00
2019-01-20T10:42:51.620Z,5720.00
2019-01-20T10:43:51.613Z,5700.00
2019-01-20T10:44:51.603Z,5668.00
2019-01-20T10:45:51.612Z,5628.00
2019-01-20T10:46:51.593Z,5620.00
2019-01-20T10:47:51.580Z,5608.00
2019-01-20T10:48:51.554Z,5568.00
2019-01-20T10:49:51.545Z,5564.00
2019-01-20T10:50:51.556Z,5524.00
2019-01-20T10:51:51.521Z,5500.00
2019-01-20T10:52:51.515Z,5468.00
2019-01-20T10:53:53.135Z,5444.00
2019-01-20T10:54:51.489Z,5428.00
2019-01-20T10:55:51.502Z,5412.00
2019-01-20T10:56:51.466Z,5412.00
2019-01-20T10:57:51.456Z,5416.00
2019-01-20T10:58:51.448Z,5396.00
2019-01-20T10:59:51.444Z,5392.00
2019-01-20T11:00:51.465Z,5368.00
2019-01-20T11:01:51.416Z,5376.00
2019-01-20T11:02:51.409Z,5372.00
2019-01-20T11:03:51.393Z,5328.00
2019-01-20T11:04:57.469Z,5336.00
2019-01-20T11:05:52.409Z,5332.00
2019-01-20T11:06:51.363Z,5296.00
2019-01-20T11:07:51.354Z,5276.00
2019-01-20T11:08:51.339Z,5240.00
2019-01-20T11:09:51.333Z,5220.00
2019-01-20T11:10:51.320Z,5236.00
2019-01-20T11:11:51.335Z,5236.00
2019-01-20T11:12:51.326Z,5184.00
2019-01-20T11:13:51.281Z,5168.00
2019-01-20T11:14:51.301Z,5136.00
2019-01-20T11:15:51.262Z,5128.00
2019-01-20T11:16:51.254Z,5112.00
2019-01-20T11:17:52.829Z,5092.00
2019-01-20T11:18:51.251Z,5088.00
2019-01-20T11:19:51.238Z,5060.00
2019-01-20T11:20:51.202Z,5048.00
2019-01-20T11:21:51.192Z,5072.00
2019-01-20T11:22:51.270Z,5048.00
2019-01-20T11:23:51.170Z,5044.00
2019-01-20T11:24:51.156Z,5048.00
2019-01-20T11:25:51.146Z,5068.00
2019-01-20T11:26:51.138Z,5036.00
2019-01-20T11:27:51.170Z,5016.00
2019-01-20T11:28:51.115Z,4988.00
2019-01-20T11:29:51.106Z,4964.00
2019-01-20T11:30:51.095Z,4916.00
2019-01-20T11:31:51.079Z,4896.00
2019-01-20T11:32:51.124Z,4880.00
2019-01-20T11:33:51.066Z,4868.00
2019-01-20T11:34:51.053Z,4852.00
2019-01-20T11:35:51.038Z,4824.00
2019-01-20T11:36:51.027Z,4808.00
2019-01-20T11:37:51.052Z,4796.00
2019-01-20T11:38:51.003Z,4792.00
2019-01-20T11:39:50.994Z,4780.00
2019-01-20T11:40:50.982Z,4756.00
2019-01-20T11:41:50.977Z,4744.00
2019-01-20T11:42:50.996Z,4740.00
2019-01-20T11:43:50.958Z,4724.00
2019-01-20T11:44:50.942Z,4708.00
2019-01-20T11:45:50.928Z,4676.00
2019-01-20T11:46:50.923Z,4656.00
2019-01-20T11:47:50.935Z,4632.00
2019-01-20T11:48:50.898Z,4612.00
2019-01-20T11:49:50.895Z,4604.00
2019-01-20T11:50:50.904Z,4588.00
2019-01-20T11:51:50.862Z,4596.00
2019-01-20T11:52:50.861Z,4588.00
2019-01-20T11:53:50.841Z,4560.00
2019-01-20T11:54:50.834Z,4556.00
2019-01-20T11:55:50.853Z,4560.00
2019-01-20T11:56:50.813Z,4564.00
2019-01-20T11:57:50.798Z,4560.00
2019-01-20T11:58:50.792Z,4572.00
2019-01-20T11:59:50.778Z,4576.00
2019-01-20T12:00:50.792Z,4576.00
2019-01-20T12:01:50.977Z,4584.00
2019-01-20T12:02:50.749Z,4576.00
2019-01-20T12:03:50.757Z,4568.00
2019-01-20T12:04:50.727Z,4568.00
2019-01-20T12:05:50.708Z,4572.00
2019-01-20T12:06:50.712Z,4544.00
2019-01-20T12:07:50.693Z,4520.00
2019-01-20T12:08:50.721Z,4512.00
2019-01-20T12:09:50.665Z,4500.00
2019-01-20T12:10:50.663Z,4484.00
2019-01-20T12:11:50.649Z,4480.00
2019-01-20T12:12:50.633Z,4492.00
2019-01-20T12:13:50.660Z,4488.00
2019-01-20T12:14:50.630Z,4480.00
2019-01-20T12:15:50.602Z,4464.00
2019-01-20T12:16:50.594Z,4452.00
2019-01-20T12:17:50.590Z,4440.00
2019-01-20T12:18:50.591Z,4412.00
2019-01-20T12:19:50.559Z,4388.00
2019-01-20T12:20:50.574Z,4380.00
2019-01-20T12:21:50.537Z,4368.00
2019-01-20T12:22:50.526Z,4368.00
2019-01-20T12:23:50.512Z,4388.00
2019-01-20T12:24:50.529Z,4388.00
2019-01-20T12:25:50.490Z,4388.00
2019-01-20T12:26:50.485Z,4388.00
2019-01-20T12:27:50.475Z,4372.00
2019-01-20T12:28:50.456Z,4352.00
2019-01-20T12:29:52.002Z,4348.00
2019-01-20T12:30:50.441Z,4348.00
2019-01-20T12:31:50.425Z,4328.00
2019-01-20T12:32:50.427Z,4312.00
2019-01-20T12:36:10.605Z,4288.00
2019-01-20T12:37:08.710Z,4276.00
2019-01-20T12:38:08.697Z,4268.00
2019-01-20T12:39:08.687Z,4248.00
2019-01-20T12:40:08.698Z,4236.00
2019-01-20T12:41:08.665Z,4228.00
2019-01-20T12:42:08.657Z,4228.00
2019-01-20T12:43:08.648Z,4236.00
2019-01-20T12:44:08.640Z,4216.00
2019-01-20T12:45:08.644Z,4204.00
2019-01-20T12:46:08.615Z,4184.00
2019-01-20T12:47:08.602Z,4164.00
2019-01-20T12:48:08.613Z,4156.00